sensor_id;sensor_type;location;lat;lon;timestamp;pressure;altitude;pressure_sealevel;temperature;humidity
42771;BME280;28426;42.872;25.314;2022-10-16T00:00:40;97749.50;;;6.50;65.43
42771;BME280;28426;42.872;25.314;2022-10-16T00:03:14;97750.22;;;5.54;67.62
42771;BME280;28426;42.872;25.314;2022-10-16T00:05:45;97737.66;;;4.64;70.41
42771;BME280;28426;42.872;25.314;2022-10-16T00:08:16;97749.88;;;4.12;72.37
42771;BME280;28426;42.872;25.314;2022-10-16T00:10:46;97743.75;;;3.58;73.51
42771;BME280;28426;42.872;25.314;2022-10-16T00:13:17;97745.97;;;3.18;76.47
42771;BME280;28426;42.872;25.314;2022-10-16T00:15:48;97752.34;;;2.93;79.17
42771;BME280;28426;42.872;25.314;2022-10-16T00:18:21;97760.25;;;2.81;81.89
42771;BME280;28426;42.872;25.314;2022-10-16T00:20:52;97761.22;;;2.80;85.65
42771;BME280;28426;42.872;25.314;2022-10-16T00:24:03;97759.53;;;2.91;87.31
42771;BME280;28426;42.872;25.314;2022-10-16T00:26:37;97758.69;;;3.01;88.04
42771;BME280;28426;42.872;25.314;2022-10-16T00:29:08;97758.34;;;3.06;86.33
42771;BME280;28426;42.872;25.314;2022-10-16T00:31:39;97764.94;;;3.00;84.32
42771;BME280;28426;42.872;25.314;2022-10-16T00:34:12;97765.66;;;3.03;91.80
42771;BME280;28426;42.872;25.314;2022-10-16T00:36:42;97770.41;;;3.20;91.62
42771;BME280;28426;42.872;25.314;2022-10-16T00:39:13;97770.06;;;3.36;90.90
42771;BME280;28426;42.872;25.314;2022-10-16T00:41:43;97778.28;;;3.55;90.06
42771;BME280;28426;42.872;25.314;2022-10-16T00:44:45;97784.72;;;3.73;89.00
42771;BME280;28426;42.872;25.314;2022-10-16T00:47:21;97787.53;;;3.93;87.79
42771;BME280;28426;42.872;25.314;2022-10-16T00:49:59;97786.03;;;4.12;87.08
42771;BME280;28426;42.872;25.314;2022-10-16T00:52:31;97788.34;;;4.26;86.07
42771;BME280;28426;42.872;25.314;2022-10-16T00:55:04;97792.63;;;4.39;85.13
42771;BME280;28426;42.872;25.314;2022-10-16T00:57:35;97796.03;;;4.51;84.49
42771;BME280;28426;42.872;25.314;2022-10-16T01:00:09;97790.81;;;4.61;83.68
42771;BME280;28426;42.872;25.314;2022-10-16T01:02:40;97788.31;;;4.69;83.27
42771;BME280;28426;42.872;25.314;2022-10-16T01:05:13;97792.13;;;4.76;82.80
42771;BME280;28426;42.872;25.314;2022-10-16T01:07:48;97792.44;;;4.83;82.35
42771;BME280;28426;42.872;25.314;2022-10-16T01:10:27;97797.19;;;4.89;81.82
42771;BME280;28426;42.872;25.314;2022-10-16T01:13:04;97796.81;;;4.94;81.78
42771;BME280;28426;42.872;25.314;2022-10-16T01:15:42;97796.56;;;4.97;81.04
42771;BME280;28426;42.872;25.314;2022-10-16T01:18:19;97797.00;;;5.02;80.73
42771;BME280;28426;42.872;25.314;2022-10-16T01:20:57;97799.38;;;5.05;80.48
42771;BME280;28426;42.872;25.314;2022-10-16T01:23:38;97806.06;;;5.09;80.18
42771;BME280;28426;42.872;25.314;2022-10-16T01:26:35;97796.56;;;4.97;80.30
42771;BME280;28426;42.872;25.314;2022-10-16T01:29:15;97801.78;;;4.87;83.40
42771;BME280;28426;42.872;25.314;2022-10-16T01:31:53;97798.91;;;4.69;81.44
42771;BME280;28426;42.872;25.314;2022-10-16T01:34:32;97801.38;;;4.61;84.32
42771;BME280;28426;42.872;25.314;2022-10-16T01:37:05;97807.25;;;4.43;82.27
42771;BME280;28426;42.872;25.314;2022-10-16T01:39:39;97803.06;;;4.40;85.05
42771;BME280;28426;42.872;25.314;2022-10-16T01:42:15;97797.25;;;4.25;83.27
42771;BME280;28426;42.872;25.314;2022-10-16T01:44:51;97797.75;;;4.19;86.46
42771;BME280;28426;42.872;25.314;2022-10-16T01:47:25;97809.69;;;4.13;85.49
42771;BME280;28426;42.872;25.314;2022-10-16T01:49:58;97811.75;;;3.98;84.45
42771;BME280;28426;42.872;25.314;2022-10-16T01:52:34;97812.19;;;3.82;82.77
42771;BME280;28426;42.872;25.314;2022-10-16T01:55:08;97799.09;;;3.81;87.47
42771;BME280;28426;42.872;25.314;2022-10-16T01:57:42;97813.00;;;3.83;86.35
42771;BME280;28426;42.872;25.314;2022-10-16T02:00:17;97814.88;;;3.92;87.67
42771;BME280;28426;42.872;25.314;2022-10-16T02:02:51;97813.34;;;3.89;85.98
42771;BME280;28426;42.872;25.314;2022-10-16T02:05:26;97815.63;;;3.83;84.92
42771;BME280;28426;42.872;25.314;2022-10-16T02:07:58;97811.50;;;3.69;83.32
42771;BME280;28426;42.872;25.314;2022-10-16T02:10:32;97806.72;;;3.51;82.64
42771;BME280;28426;42.872;25.314;2022-10-16T02:13:07;97809.94;;;3.55;86.72
42771;BME280;28426;42.872;25.314;2022-10-16T02:16:02;97811.88;;;3.52;85.33
42771;BME280;28426;42.872;25.314;2022-10-16T02:18:33;97819.56;;;3.44;84.27
42771;BME280;28426;42.872;25.314;2022-10-16T02:21:09;97817.63;;;3.46;88.53
42771;BME280;28426;42.872;25.314;2022-10-16T02:23:47;97816.56;;;3.49;87.08
42771;BME280;28426;42.872;25.314;2022-10-16T02:26:26;97821.38;;;3.44;85.19
42771;BME280;28426;42.872;25.314;2022-10-16T02:29:00;97820.41;;;3.33;84.14
42771;BME280;28426;42.872;25.314;2022-10-16T02:31:41;97823.28;;;3.30;88.12
42771;BME280;28426;42.872;25.314;2022-10-16T02:34:12;97817.56;;;3.36;87.42
42771;BME280;28426;42.872;25.314;2022-10-16T02:36:45;97818.59;;;3.34;84.92
42771;BME280;28426;42.872;25.314;2022-10-16T02:39:18;97820.31;;;3.23;84.18
42771;BME280;28426;42.872;25.314;2022-10-16T02:41:49;97820.19;;;3.25;88.79
42771;BME280;28426;42.872;25.314;2022-10-16T02:44:20;97797.16;;;3.16;87.53
42771;BME280;28426;42.872;25.314;2022-10-16T02:46:53;97830.59;;;3.38;88.47
42771;BME280;28426;42.872;25.314;2022-10-16T02:49:24;97827.72;;;3.41;87.41
42771;BME280;28426;42.872;25.314;2022-10-16T02:51:55;97831.22;;;3.42;85.52
42771;BME280;28426;42.872;25.314;2022-10-16T02:54:25;97837.06;;;3.34;84.17
42771;BME280;28426;42.872;25.314;2022-10-16T02:56:56;97824.50;;;3.14;83.34
42771;BME280;28426;42.872;25.314;2022-10-16T02:59:26;97833.50;;;3.12;89.38
42771;BME280;28426;42.872;25.314;2022-10-16T03:02:00;97840.22;;;3.16;87.68
42771;BME280;28426;42.872;25.314;2022-10-16T03:04:30;97846.69;;;3.12;85.11
42771;BME280;28426;42.872;25.314;2022-10-16T03:07:01;97846.91;;;3.09;88.82
42771;BME280;28426;42.872;25.314;2022-10-16T03:09:32;97842.84;;;3.16;88.42
42771;BME280;28426;42.872;25.314;2022-10-16T03:12:03;97850.78;;;3.16;86.17
42771;BME280;28426;42.872;25.314;2022-10-16T03:14:33;97851.22;;;3.10;84.65
42771;BME280;28426;42.872;25.314;2022-10-16T03:17:07;97853.88;;;3.10;87.97
42771;BME280;28426;42.872;25.314;2022-10-16T03:19:38;97846.44;;;3.15;87.43
42771;BME280;28426;42.872;25.314;2022-10-16T03:22:08;97848.13;;;3.16;86.04
42771;BME280;28426;42.872;25.314;2022-10-16T03:24:39;97853.88;;;3.10;84.75
42771;BME280;28426;42.872;25.314;2022-10-16T03:27:09;97853.88;;;3.10;87.91
42771;BME280;28426;42.872;25.314;2022-10-16T03:29:40;97847.50;;;3.12;87.05
42771;BME280;28426;42.872;25.314;2022-10-16T03:32:13;97839.97;;;3.08;85.27
42771;BME280;28426;42.872;25.314;2022-10-16T03:34:44;97854.47;;;3.02;83.90
42771;BME280;28426;42.872;25.314;2022-10-16T03:37:14;97856.38;;;2.88;84.11
42771;BME280;28426;42.872;25.314;2022-10-16T03:39:45;97857.59;;;2.96;87.40
42771;BME280;28426;42.872;25.314;2022-10-16T03:42:15;97854.09;;;2.95;85.43
42771;BME280;28426;42.872;25.314;2022-10-16T03:44:46;97861.03;;;2.85;84.07
42771;BME280;28426;42.872;25.314;2022-10-16T03:47:19;97874.41;;;2.70;83.41
42771;BME280;28426;42.872;25.314;2022-10-16T03:49:52;97870.47;;;2.76;88.55
42771;BME280;28426;42.872;25.314;2022-10-16T03:52:22;97873.00;;;2.78;86.98
42771;BME280;28426;42.872;25.314;2022-10-16T03:54:53;97875.16;;;2.72;85.02
42771;BME280;28426;42.872;25.314;2022-10-16T03:57:23;97869.22;;;2.57;84.42
42771;BME280;28426;42.872;25.314;2022-10-16T03:59:54;97871.78;;;2.70;88.68
42771;BME280;28426;42.872;25.314;2022-10-16T04:02:28;97870.59;;;2.74;87.04
42771;BME280;28426;42.872;25.314;2022-10-16T04:04:58;97868.44;;;2.68;85.55
42771;BME280;28426;42.872;25.314;2022-10-16T04:07:29;97872.50;;;2.72;89.50
42771;BME280;28426;42.872;25.314;2022-10-16T04:09:59;97864.13;;;2.79;88.01
42771;BME280;28426;42.872;25.314;2022-10-16T04:12:30;97863.31;;;2.78;86.34
42771;BME280;28426;42.872;25.314;2022-10-16T04:15:01;97867.25;;;2.72;85.14
42771;BME280;28426;42.872;25.314;2022-10-16T04:17:34;97855.94;;;2.59;84.28
42771;BME280;28426;42.872;25.314;2022-10-16T04:20:06;97871.75;;;2.59;89.80
42771;BME280;28426;42.872;25.314;2022-10-16T04:22:36;97866.00;;;2.65;88.13
42771;BME280;28426;42.872;25.314;2022-10-16T04:25:08;97862.78;;;2.61;85.39
42771;BME280;28426;42.872;25.314;2022-10-16T04:27:39;97868.00;;;2.50;84.18
42771;BME280;28426;42.872;25.314;2022-10-16T04:30:12;97871.97;;;2.56;88.58
42771;BME280;28426;42.872;25.314;2022-10-16T04:32:47;97872.63;;;2.59;87.04
42771;BME280;28426;42.872;25.314;2022-10-16T04:35:19;97868.63;;;2.54;86.58
42771;BME280;28426;42.872;25.314;2022-10-16T04:37:49;97876.81;;;2.62;87.59
42771;BME280;28426;42.872;25.314;2022-10-16T04:40:20;97875.84;;;2.63;86.39
42771;BME280;28426;42.872;25.314;2022-10-16T04:42:51;97880.63;;;2.58;85.36
42771;BME280;28426;42.872;25.314;2022-10-16T04:45:21;97887.22;;;2.64;87.97
42771;BME280;28426;42.872;25.314;2022-10-16T04:47:56;97889.63;;;2.67;86.98
42771;BME280;28426;42.872;25.314;2022-10-16T04:50:27;97892.38;;;2.65;85.65
42771;BME280;28426;42.872;25.314;2022-10-16T04:53:05;97905.28;;;2.57;84.83
42771;BME280;28426;42.872;25.314;2022-10-16T04:55:35;97905.75;;;2.51;87.80
42771;BME280;28426;42.872;25.314;2022-10-16T04:58:06;97901.81;;;2.56;88.33
42771;BME280;28426;42.872;25.314;2022-10-16T05:00:37;97898.31;;;2.56;86.10
42771;BME280;28426;42.872;25.314;2022-10-16T05:03:10;97904.88;;;2.50;85.26
42771;BME280;28426;42.872;25.314;2022-10-16T05:05:43;97901.16;;;2.41;84.77
42771;BME280;28426;42.872;25.314;2022-10-16T05:08:15;97902.59;;;2.45;88.95
42771;BME280;28426;42.872;25.314;2022-10-16T05:10:45;97898.78;;;2.50;88.04
42771;BME280;28426;42.872;25.314;2022-10-16T05:13:16;97893.75;;;2.46;86.06
42771;BME280;28426;42.872;25.314;2022-10-16T05:15:47;97902.81;;;2.42;84.80
42771;BME280;28426;42.872;25.314;2022-10-16T05:18:21;97908.38;;;2.51;89.61
42771;BME280;28426;42.872;25.314;2022-10-16T05:20:51;97905.06;;;2.60;88.12
42771;BME280;28426;42.872;25.314;2022-10-16T05:23:22;97911.78;;;2.64;86.21
42771;BME280;28426;42.872;25.314;2022-10-16T05:25:54;97920.41;;;2.66;85.45
42771;BME280;28426;42.872;25.314;2022-10-16T05:28:26;97918.41;;;2.81;88.83
42771;BME280;28426;42.872;25.314;2022-10-16T05:30:58;97918.94;;;2.98;86.92
42771;BME280;28426;42.872;25.314;2022-10-16T05:33:32;97923.28;;;3.10;87.88
42771;BME280;28426;42.872;25.314;2022-10-16T05:36:03;97919.94;;;3.31;88.76
42771;BME280;28426;42.872;25.314;2022-10-16T05:38:35;97915.03;;;3.49;84.89
42771;BME280;28426;42.872;25.314;2022-10-16T05:41:05;97921.25;;;3.60;83.53
42771;BME280;28426;42.872;25.314;2022-10-16T05:43:36;97920.06;;;3.75;87.02
42771;BME280;28426;42.872;25.314;2022-10-16T05:46:07;97923.88;;;3.94;85.21
42771;BME280;28426;42.872;25.314;2022-10-16T05:48:40;97915.91;;;4.17;85.29
42771;BME280;28426;42.872;25.314;2022-10-16T05:51:12;97923.66;;;4.41;83.07
42771;BME280;28426;42.872;25.314;2022-10-16T05:53:43;97924.41;;;4.65;83.92
42771;BME280;28426;42.872;25.314;2022-10-16T05:56:14;97932.34;;;4.86;81.52
42771;BME280;28426;42.872;25.314;2022-10-16T05:58:45;97935.56;;;5.11;82.29
42771;BME280;28426;42.872;25.314;2022-10-16T06:01:17;97939.16;;;5.31;81.07
42771;BME280;28426;42.872;25.314;2022-10-16T06:03:54;97937.78;;;5.58;81.30
42771;BME280;28426;42.872;25.314;2022-10-16T06:06:26;97942.06;;;5.81;79.00
42771;BME280;28426;42.872;25.314;2022-10-16T06:08:58;97946.56;;;6.00;78.26
42771;BME280;28426;42.872;25.314;2022-10-16T06:11:30;97941.09;;;6.23;79.88
42771;BME280;28426;42.872;25.314;2022-10-16T06:14:01;97940.00;;;6.45;77.24
42771;BME280;28426;42.872;25.314;2022-10-16T06:16:34;97946.03;;;6.77;78.91
42771;BME280;28426;42.872;25.314;2022-10-16T06:19:08;97945.03;;;6.98;75.61
42771;BME280;28426;42.872;25.314;2022-10-16T06:21:39;97953.50;;;7.31;77.38
42771;BME280;28426;42.872;25.314;2022-10-16T06:24:09;97946.63;;;7.48;74.50
42771;BME280;28426;42.872;25.314;2022-10-16T06:26:40;97956.84;;;7.81;75.88
42771;BME280;28426;42.872;25.314;2022-10-16T06:29:11;97951.88;;;7.96;72.51
42771;BME280;28426;42.872;25.314;2022-10-16T06:31:41;97966.38;;;8.30;74.67
42771;BME280;28426;42.872;25.314;2022-10-16T06:34:14;97962.91;;;8.47;70.92
42771;BME280;28426;42.872;25.314;2022-10-16T06:36:45;97975.06;;;8.78;72.64
42771;BME280;28426;42.872;25.314;2022-10-16T06:39:15;97965.56;;;8.94;69.56
42771;BME280;28426;42.872;25.314;2022-10-16T06:41:46;97976.78;;;9.24;71.39
42771;BME280;28426;42.872;25.314;2022-10-16T06:44:17;97976.38;;;9.37;68.60
42771;BME280;28426;42.872;25.314;2022-10-16T06:46:47;97979.88;;;9.64;70.28
42771;BME280;28426;42.872;25.314;2022-10-16T06:49:21;97977.63;;;9.77;67.54
42771;BME280;28426;42.872;25.314;2022-10-16T06:51:51;97982.75;;;10.05;68.15
42771;BME280;28426;42.872;25.314;2022-10-16T06:54:22;97976.63;;;10.13;66.47
42771;BME280;28426;42.872;25.314;2022-10-16T06:56:53;97985.94;;;10.44;66.68
42771;BME280;28426;42.872;25.314;2022-10-16T06:59:23;97983.47;;;10.59;65.23
42771;BME280;28426;42.872;25.314;2022-10-16T07:01:54;97992.38;;;10.93;65.90
42771;BME280;28426;42.872;25.314;2022-10-16T07:04:27;97990.53;;;11.10;63.96
42771;BME280;28426;42.872;25.314;2022-10-16T07:07:00;97984.38;;;11.43;63.51
42771;BME280;28426;42.872;25.314;2022-10-16T07:09:35;97972.16;;;11.48;62.51
42771;BME280;28426;42.872;25.314;2022-10-16T07:12:06;97993.97;;;11.85;62.90
42771;BME280;28426;42.872;25.314;2022-10-16T07:14:36;97985.91;;;11.94;61.39
42771;BME280;28426;42.872;25.314;2022-10-16T07:17:07;97994.19;;;12.32;64.10
42771;BME280;28426;42.872;25.314;2022-10-16T07:19:40;97992.09;;;12.51;60.55
42771;BME280;28426;42.872;25.314;2022-10-16T07:22:11;97996.28;;;12.77;62.33
42771;BME280;28426;42.872;25.314;2022-10-16T07:24:41;97997.38;;;13.14;63.67
42771;BME280;28426;42.872;25.314;2022-10-16T07:27:18;97988.16;;;13.55;58.79
42771;BME280;28426;42.872;25.314;2022-10-16T07:29:51;97974.94;;;13.54;58.60
42771;BME280;28426;42.872;25.314;2022-10-16T07:32:21;97988.19;;;13.85;59.84
42771;BME280;28426;42.872;25.314;2022-10-16T07:34:56;97990.13;;;14.07;60.09
42771;BME280;28426;42.872;25.314;2022-10-16T07:37:26;97983.81;;;14.30;59.67
42771;BME280;28426;42.872;25.314;2022-10-16T07:39:58;97991.56;;;14.55;59.67
42771;BME280;28426;42.872;25.314;2022-10-16T07:42:29;97991.44;;;14.78;59.50
42771;BME280;28426;42.872;25.314;2022-10-16T07:44:59;97994.13;;;15.00;58.57
42771;BME280;28426;42.872;25.314;2022-10-16T07:47:30;97998.81;;;15.13;57.28
42771;BME280;28426;42.872;25.314;2022-10-16T07:50:04;97992.78;;;15.11;57.08
42771;BME280;28426;42.872;25.314;2022-10-16T07:52:35;98005.97;;;15.27;56.54
42771;BME280;28426;42.872;25.314;2022-10-16T07:55:06;97996.13;;;15.35;55.98
42771;BME280;28426;42.872;25.314;2022-10-16T07:57:38;97998.22;;;15.39;55.41
42771;BME280;28426;42.872;25.314;2022-10-16T08:00:09;97996.59;;;15.45;55.16
42771;BME280;28426;42.872;25.314;2022-10-16T08:02:41;97993.13;;;15.51;54.71
42771;BME280;28426;42.872;25.314;2022-10-16T08:05:14;97987.56;;;15.53;53.87
42771;BME280;28426;42.872;25.314;2022-10-16T08:07:48;97986.34;;;15.55;53.68
42771;BME280;28426;42.872;25.314;2022-10-16T08:10:20;97982.22;;;15.60;53.95
42771;BME280;28426;42.872;25.314;2022-10-16T08:12:52;97983.50;;;15.64;53.71
42771;BME280;28426;42.872;25.314;2022-10-16T08:15:23;97979.19;;;15.69;52.26
42771;BME280;28426;42.872;25.314;2022-10-16T08:17:58;97985.22;;;15.72;51.83
42771;BME280;28426;42.872;25.314;2022-10-16T08:20:32;97984.38;;;15.71;51.08
42771;BME280;28426;42.872;25.314;2022-10-16T08:23:03;97982.31;;;15.73;50.51
42771;BME280;28426;42.872;25.314;2022-10-16T08:25:35;97985.84;;;15.74;50.75
42771;BME280;28426;42.872;25.314;2022-10-16T08:28:06;97984.81;;;15.75;50.83
42771;BME280;28426;42.872;25.314;2022-10-16T08:30:37;97986.09;;;15.79;50.26
42771;BME280;28426;42.872;25.314;2022-10-16T08:33:08;97980.91;;;15.77;49.79
42771;BME280;28426;42.872;25.314;2022-10-16T08:35:41;97987.94;;;15.78;49.50
42771;BME280;28426;42.872;25.314;2022-10-16T08:38:12;97994.13;;;15.72;49.41
42771;BME280;28426;42.872;25.314;2022-10-16T08:40:43;97995.91;;;15.65;49.08
42771;BME280;28426;42.872;25.314;2022-10-16T08:43:37;97988.97;;;15.49;46.26
42771;BME280;28426;42.872;25.314;2022-10-16T08:46:25;97983.78;;;14.97;46.55
42771;BME280;28426;42.872;25.314;2022-10-16T08:49:05;97989.66;;;14.70;46.85
42771;BME280;28426;42.872;25.314;2022-10-16T08:51:43;97989.19;;;14.30;47.95
42771;BME280;28426;42.872;25.314;2022-10-16T08:54:23;97979.78;;;14.04;47.74
42771;BME280;28426;42.872;25.314;2022-10-16T08:57:04;97992.00;;;13.91;48.52
42771;BME280;28426;42.872;25.314;2022-10-16T08:59:38;97999.78;;;13.86;48.31
42771;BME280;28426;42.872;25.314;2022-10-16T09:02:24;97994.84;;;13.75;48.26
42771;BME280;28426;42.872;25.314;2022-10-16T09:05:24;97995.66;;;13.60;47.78
42771;BME280;28426;42.872;25.314;2022-10-16T09:08:07;97997.56;;;13.51;49.45
42771;BME280;28426;42.872;25.314;2022-10-16T09:10:49;97992.75;;;13.46;49.18
42771;BME280;28426;42.872;25.314;2022-10-16T09:13:25;97996.75;;;13.51;49.32
42771;BME280;28426;42.872;25.314;2022-10-16T09:16:04;98002.03;;;13.59;49.59
42771;BME280;28426;42.872;25.314;2022-10-16T09:18:45;98004.84;;;13.66;48.70
42771;BME280;28426;42.872;25.314;2022-10-16T09:21:21;98003.25;;;13.71;48.78
42771;BME280;28426;42.872;25.314;2022-10-16T09:23:58;97993.34;;;13.72;49.22
42771;BME280;28426;42.872;25.314;2022-10-16T09:26:29;97993.91;;;13.82;49.15
42771;BME280;28426;42.872;25.314;2022-10-16T09:29:00;97997.34;;;13.91;49.45
42771;BME280;28426;42.872;25.314;2022-10-16T09:31:31;97991.06;;;13.99;48.83
42771;BME280;28426;42.872;25.314;2022-10-16T09:34:03;97995.50;;;14.07;48.99
42771;BME280;28426;42.872;25.314;2022-10-16T09:36:40;97994.59;;;14.15;49.03
42771;BME280;28426;42.872;25.314;2022-10-16T09:39:14;97995.31;;;14.23;48.37
42771;BME280;28426;42.872;25.314;2022-10-16T09:41:45;97988.56;;;14.28;48.54
42771;BME280;28426;42.872;25.314;2022-10-16T09:44:21;97993.81;;;14.36;48.83
42771;BME280;28426;42.872;25.314;2022-10-16T09:47:02;97994.72;;;14.43;48.73
42771;BME280;28426;42.872;25.314;2022-10-16T09:49:32;97989.63;;;14.48;48.44
42771;BME280;28426;42.872;25.314;2022-10-16T09:52:04;97988.88;;;14.55;48.70
42771;BME280;28426;42.872;25.314;2022-10-16T09:54:38;97989.97;;;14.60;48.29
42771;BME280;28426;42.872;25.314;2022-10-16T09:57:19;97989.41;;;14.65;48.14
42771;BME280;28426;42.872;25.314;2022-10-16T09:59:53;97981.06;;;14.60;47.28
42771;BME280;28426;42.872;25.314;2022-10-16T10:02:31;97990.50;;;14.71;47.75
42771;BME280;28426;42.872;25.314;2022-10-16T10:05:06;97989.28;;;14.73;48.06
42771;BME280;28426;42.872;25.314;2022-10-16T10:07:54;97991.13;;;14.73;46.28
42771;BME280;28426;42.872;25.314;2022-10-16T10:10:30;97985.97;;;14.71;46.53
42771;BME280;28426;42.872;25.314;2022-10-16T10:13:01;97985.97;;;14.71;45.95
42771;BME280;28426;42.872;25.314;2022-10-16T10:15:34;97981.81;;;14.69;46.03
42771;BME280;28426;42.872;25.314;2022-10-16T10:18:16;97973.53;;;14.70;45.35
42771;BME280;28426;42.872;25.314;2022-10-16T10:20:57;97974.66;;;14.76;45.34
42771;BME280;28426;42.872;25.314;2022-10-16T10:23:29;97973.28;;;14.80;45.40
42771;BME280;28426;42.872;25.314;2022-10-16T10:26:06;97969.81;;;14.86;45.80
42771;BME280;28426;42.872;25.314;2022-10-16T10:28:54;97971.56;;;14.94;45.17
42771;BME280;28426;42.872;25.314;2022-10-16T10:31:28;97967.91;;;15.02;46.18
42771;BME280;28426;42.872;25.314;2022-10-16T10:34:18;97957.47;;;15.14;45.41
42771;BME280;28426;42.872;25.314;2022-10-16T10:36:59;97962.31;;;15.25;45.14
42771;BME280;28426;42.872;25.314;2022-10-16T10:39:38;97956.41;;;15.37;45.26
42771;BME280;28426;42.872;25.314;2022-10-16T10:42:23;97963.94;;;15.48;44.40
42771;BME280;28426;42.872;25.314;2022-10-16T10:47:57;97953.75;;;15.72;44.26
42771;BME280;28426;42.872;25.314;2022-10-16T10:50:39;97960.88;;;15.87;44.31
42771;BME280;28426;42.872;25.314;2022-10-16T10:53:21;97969.72;;;16.02;43.67
42771;BME280;28426;42.872;25.314;2022-10-16T10:56:07;97963.34;;;16.17;44.02
42771;BME280;28426;42.872;25.314;2022-10-16T10:58:54;97953.25;;;16.32;44.06
42771;BME280;28426;42.872;25.314;2022-10-16T11:01:36;97945.66;;;16.50;43.27
42771;BME280;28426;42.872;25.314;2022-10-16T11:04:31;97943.81;;;16.64;43.23
42771;BME280;28426;42.872;25.314;2022-10-16T11:07:05;97947.19;;;16.79;43.48
42771;BME280;28426;42.872;25.314;2022-10-16T11:09:41;97943.69;;;16.92;43.00
42771;BME280;28426;42.872;25.314;2022-10-16T11:12:17;97940.59;;;17.02;43.19
42771;BME280;28426;42.872;25.314;2022-10-16T11:14:56;97936.88;;;17.17;41.78
42771;BME280;28426;42.872;25.314;2022-10-16T11:17:31;97943.31;;;17.29;43.21
42771;BME280;28426;42.872;25.314;2022-10-16T11:20:13;97933.97;;;17.45;42.49
42771;BME280;28426;42.872;25.314;2022-10-16T11:22:48;97937.06;;;17.62;42.56
42771;BME280;28426;42.872;25.314;2022-10-16T11:25:22;97939.94;;;17.74;42.07
42771;BME280;28426;42.872;25.314;2022-10-16T11:27:57;97931.81;;;17.81;41.60
42771;BME280;28426;42.872;25.314;2022-10-16T11:30:40;97936.38;;;17.87;38.24
42771;BME280;28426;42.872;25.314;2022-10-16T11:33:35;97934.47;;;17.95;40.18
42771;BME280;28426;42.872;25.314;2022-10-16T11:36:14;97931.38;;;17.98;41.10
42771;BME280;28426;42.872;25.314;2022-10-16T11:38:51;97930.97;;;18.08;41.76
42771;BME280;28426;42.872;25.314;2022-10-16T11:41:27;97926.97;;;18.17;41.92
42771;BME280;28426;42.872;25.314;2022-10-16T11:44:16;97928.00;;;18.23;40.06
42771;BME280;28426;42.872;25.314;2022-10-16T11:47:01;97923.38;;;18.30;40.84
42771;BME280;28426;42.872;25.314;2022-10-16T11:49:55;97919.16;;;18.41;42.28
42771;BME280;28426;42.872;25.314;2022-10-16T11:52:33;97921.63;;;18.49;40.48
42771;BME280;28426;42.872;25.314;2022-10-16T11:55:14;97921.41;;;18.51;38.30
42771;BME280;28426;42.872;25.314;2022-10-16T11:57:49;97914.13;;;18.51;39.79
42771;BME280;28426;42.872;25.314;2022-10-16T12:00:24;97925.56;;;18.53;39.80
42771;BME280;28426;42.872;25.314;2022-10-16T12:03:04;97930.75;;;18.55;39.88
42771;BME280;28426;42.872;25.314;2022-10-16T12:05:52;97930.28;;;18.58;39.39
42771;BME280;28426;42.872;25.314;2022-10-16T12:08:27;97929.44;;;18.64;40.46
42771;BME280;28426;42.872;25.314;2022-10-16T12:11:08;97938.66;;;18.56;36.76
42771;BME280;28426;42.872;25.314;2022-10-16T12:13:40;97934.75;;;18.46;38.43
42771;BME280;28426;42.872;25.314;2022-10-16T12:16:23;97940.03;;;18.20;36.79
42771;BME280;28426;42.872;25.314;2022-10-16T12:19:11;97928.31;;;17.81;35.93
42771;BME280;28426;42.872;25.314;2022-10-16T12:21:42;97938.72;;;17.63;37.74
42771;BME280;28426;42.872;25.314;2022-10-16T12:24:22;97940.19;;;17.39;37.69
42771;BME280;28426;42.872;25.314;2022-10-16T12:26:57;97933.13;;;17.18;38.25
42771;BME280;28426;42.872;25.314;2022-10-16T12:29:33;97939.38;;;17.05;38.52
42771;BME280;28426;42.872;25.314;2022-10-16T12:32:06;97940.56;;;16.89;38.71
42771;BME280;28426;42.872;25.314;2022-10-16T12:35:21;97921.00;;;16.59;39.07
42771;BME280;28426;42.872;25.314;2022-10-16T12:37:52;97940.50;;;16.55;39.85
42771;BME280;28426;42.872;25.314;2022-10-16T12:40:27;97922.00;;;16.38;39.81
42771;BME280;28426;42.872;25.314;2022-10-16T12:42:58;97935.66;;;16.37;39.57
42771;BME280;28426;42.872;25.314;2022-10-16T12:45:30;97950.34;;;16.27;39.61
42771;BME280;28426;42.872;25.314;2022-10-16T12:48:04;97944.50;;;16.17;39.92
42771;BME280;28426;42.872;25.314;2022-10-16T12:50:51;97949.03;;;16.10;40.37
42771;BME280;28426;42.872;25.314;2022-10-16T12:53:23;97950.63;;;16.04;40.76
42771;BME280;28426;42.872;25.314;2022-10-16T12:56:02;97958.28;;;16.00;41.27
42771;BME280;28426;42.872;25.314;2022-10-16T12:58:58;97948.47;;;16.21;40.93
42771;BME280;28426;42.872;25.314;2022-10-16T13:01:42;97954.44;;;16.85;40.10
42771;BME280;28426;42.872;25.314;2022-10-16T13:04:39;97950.97;;;17.52;38.85
42771;BME280;28426;42.872;25.314;2022-10-16T13:07:28;97935.53;;;17.94;35.92
42771;BME280;28426;42.872;25.314;2022-10-16T13:10:11;97944.59;;;18.26;36.10
42771;BME280;28426;42.872;25.314;2022-10-16T13:13:12;97952.25;;;18.36;34.87
42771;BME280;28426;42.872;25.314;2022-10-16T13:16:10;97953.97;;;18.24;35.78
42771;BME280;28426;42.872;25.314;2022-10-16T13:18:52;97956.25;;;18.13;35.99
42771;BME280;28426;42.872;25.314;2022-10-16T13:21:33;97955.66;;;18.11;35.88
42771;BME280;28426;42.872;25.314;2022-10-16T13:24:17;97957.97;;;18.08;35.80
42771;BME280;28426;42.872;25.314;2022-10-16T13:26:55;97957.97;;;18.01;36.36
42771;BME280;28426;42.872;25.314;2022-10-16T13:29:30;97965.66;;;17.90;36.08
42771;BME280;28426;42.872;25.314;2022-10-16T13:32:07;97966.13;;;17.74;35.54
42771;BME280;28426;42.872;25.314;2022-10-16T13:34:44;97960.75;;;17.60;35.69
42771;BME280;28426;42.872;25.314;2022-10-16T13:37:17;97965.94;;;17.48;36.47
42771;BME280;28426;42.872;25.314;2022-10-16T13:40:04;97956.38;;;17.32;35.55